Allen Army Airfield Delta Junction Ft Greely US
ICAO: PABI
IATA:
Category: Medium
Scheduled Services:

Elevation: 1291 ft
TransAlt. 18000 ft.

Airport Communications:
ASOS:135.65
ATIS:132.075
TWEB:114.9
ANCHORAGE CNTR:135.3
CTAF:122.9
FAIRBANKS RDO:122.2
FORT GREELY GND:118.225
FT GREELY RANGE CON:38.3
BASE OPS:122.9
TWR:125.325

PABI Zoom In..

If Map Doesn't Load, Click Here

Runways:

(A) RW 01 length 9000 ft width 150 ft
---- / hdg 7

(B) RW 07 length 4077 ft width 90 ft
---- / hdg 69

(C) RW 10 length 6115 ft width 150 ft
ILS 111.10 / hdg 102

(D) RW 19 length 9000 ft width 150 ft
---- / hdg 187

(E) RW 25 length 4077 ft width 90 ft
---- / hdg 249

(F) RW 28 length 6115 ft width 150 ft
---- / hdg 282

Location; PABI
Day. 23 / Time. 07.53 Zulu
* Altimeter: 29.58
* Temperature: 06° c. 42.8°f.
* Wind from: 000° Speed 00 kn.
Dewpoint: 06° c.
Visibility: 10 Statute Miles.
Clouds: Few 5000 ft.
Clouds: Broken 6500 ft.
Clouds: Overcast 8000 ft.

PABI 230753Z AUTO 00000KT 10SM FEW050 BKN065 OVC080 06/06 A2958 RMK SLP025 T00610061 TSNO VIA AUTODIAL


Wind - Calm.

 
 
jpsmedia.com for Web Design worldairports.se 2018   terms of use